createdAt,value
2019-01-24T00:00:41.510Z,40.86
2019-01-24T00:03:09.227Z,41.18
2019-01-24T00:05:37.056Z,41.46
2019-01-24T00:08:04.831Z,41.16
2019-01-24T00:10:32.563Z,41.20
2019-01-24T00:13:00.331Z,41.25
2019-01-24T00:15:45.490Z,41.57
2019-01-24T00:18:13.299Z,41.59
2019-01-24T00:20:41.068Z,41.56
2019-01-24T00:23:08.800Z,40.96
2019-01-24T00:25:36.530Z,41.46
2019-01-24T00:28:04.284Z,41.30
2019-01-24T00:30:32.018Z,41.38
2019-01-24T00:32:59.755Z,41.30
2019-01-24T00:35:27.479Z,41.50
2019-01-24T00:37:55.231Z,40.96
2019-01-24T00:40:22.970Z,40.63
2019-01-24T00:42:50.691Z,41.11
2019-01-24T00:45:18.412Z,41.08
2019-01-24T00:47:46.131Z,40.98
2019-01-24T00:50:26.451Z,41.45
2019-01-24T00:52:51.583Z,41.53
2019-01-24T00:55:19.314Z,41.56
2019-01-24T00:57:47.069Z,42.10
2019-01-24T01:00:19.107Z,42.20
2019-01-24T01:02:46.851Z,41.91
2019-01-24T01:05:14.615Z,41.68
2019-01-24T01:07:42.363Z,41.90
2019-01-24T01:10:10.203Z,41.89
2019-01-24T01:12:37.986Z,41.84
2019-01-24T01:15:06.578Z,41.74
2019-01-24T01:17:34.296Z,41.78
2019-01-24T01:20:02.014Z,41.84
2019-01-24T01:22:29.734Z,42.07
2019-01-24T01:24:57.486Z,42.09
2019-01-24T01:27:42.784Z,41.52
2019-01-24T01:30:11.884Z,41.59
2019-01-24T01:32:39.768Z,41.89
2019-01-24T01:35:07.555Z,42.05
2019-01-24T01:37:35.524Z,41.55
2019-01-24T01:40:04.885Z,41.54
2019-01-24T01:42:32.627Z,41.48
2019-01-24T01:45:00.347Z,41.99
2019-01-24T01:47:28.083Z,41.40
2019-01-24T01:49:55.787Z,41.37
2019-01-24T01:52:23.527Z,41.20
2019-01-24T01:54:51.302Z,40.99
2019-01-24T01:57:19.187Z,40.97
2019-01-24T01:59:46.914Z,41.08
2019-01-24T02:02:25.312Z,41.16
2019-01-24T02:04:48.899Z,40.94
2019-01-24T02:07:16.659Z,41.20
2019-01-24T02:09:44.432Z,41.33
2019-01-24T02:12:12.191Z,40.98
2019-01-24T02:14:39.913Z,40.93
2019-01-24T02:17:07.643Z,40.83
2019-01-24T02:19:35.366Z,41.17
2019-01-24T02:22:03.123Z,40.88
2019-01-24T02:24:30.842Z,40.72
2019-01-24T02:26:58.565Z,40.70
2019-01-24T02:29:26.300Z,40.74
2019-01-24T02:31:54.078Z,40.36
2019-01-24T02:34:21.791Z,41.07
2019-01-24T02:36:49.547Z,40.91
2019-01-24T02:39:17.372Z,41.08
2019-01-24T02:42:18.811Z,41.05
2019-01-24T02:45:08.333Z,41.17
2019-01-24T02:47:36.068Z,41.02
2019-01-24T02:50:04.399Z,40.62
2019-01-24T02:52:32.132Z,41.17
2019-01-24T02:55:10.937Z,40.87
2019-01-24T02:57:35.934Z,41.03
2019-01-24T03:00:03.912Z,41.33
2019-01-24T03:02:31.712Z,41.12
2019-01-24T03:04:59.436Z,40.93
2019-01-24T03:07:27.414Z,41.45
2019-01-24T03:09:55.154Z,41.46
2019-01-24T03:12:22.863Z,41.83
2019-01-24T03:14:50.667Z,41.58
2019-01-24T03:17:18.767Z,42.31
2019-01-24T03:19:46.491Z,42.10
2019-01-24T03:22:14.222Z,42.20
2019-01-24T03:24:41.970Z,41.51
2019-01-24T03:27:09.753Z,41.42
2019-01-24T03:29:37.490Z,41.43
2019-01-24T03:32:05.298Z,41.40
2019-01-24T03:34:50.472Z,41.04
2019-01-24T03:37:18.243Z,41.16
2019-01-24T03:39:45.986Z,40.88
2019-01-24T03:42:13.840Z,40.81
2019-01-24T03:44:41.576Z,41.24
2019-01-24T03:47:09.387Z,41.44
2019-01-24T03:49:37.132Z,41.04
2019-01-24T03:52:05.022Z,41.26
2019-01-24T03:54:32.787Z,40.90
2019-01-24T03:57:00.534Z,40.82
2019-01-24T03:59:28.528Z,40.96
2019-01-24T04:01:56.274Z,41.51
2019-01-24T04:04:24.003Z,41.20
2019-01-24T04:06:51.763Z,41.28
2019-01-24T04:09:19.508Z,41.36
2019-01-24T04:11:57.822Z,41.22
2019-01-24T04:14:25.575Z,41.38
2019-01-24T04:16:53.403Z,41.59
2019-01-24T04:19:21.168Z,41.59
2019-01-24T04:21:48.899Z,41.68
2019-01-24T04:24:16.690Z,41.64
2019-01-24T04:26:44.440Z,42.10
2019-01-24T04:29:12.182Z,42.22
2019-01-24T04:31:39.942Z,42.09
2019-01-24T04:34:07.663Z,42.26
2019-01-24T04:36:35.438Z,42.46
2019-01-24T04:39:03.359Z,42.50
2019-01-24T04:41:31.136Z,42.70
2019-01-24T04:43:58.871Z,42.53
2019-01-24T04:46:26.610Z,42.75
2019-01-24T04:48:59.115Z,42.95
2019-01-24T04:51:33.142Z,42.95
2019-01-24T04:54:01.135Z,43.21
2019-01-24T04:56:28.940Z,43.18
2019-01-24T04:58:56.753Z,43.17
2019-01-24T05:01:24.534Z,43.39
2019-01-24T05:03:52.246Z,43.36
2019-01-24T05:06:20.232Z,43.54
2019-01-24T05:08:47.960Z,43.55
2019-01-24T05:11:15.710Z,43.63
2019-01-24T05:13:43.555Z,43.75
2019-01-24T05:16:11.276Z,43.80
2019-01-24T05:18:38.988Z,43.91
2019-01-24T05:21:07.695Z,43.93
2019-01-24T05:23:35.580Z,43.99
2019-01-24T05:26:03.295Z,44.11
2019-01-24T05:28:31.038Z,43.88
2019-01-24T05:31:08.671Z,44.08
2019-01-24T05:33:36.471Z,44.25
2019-01-24T05:36:04.295Z,44.13
2019-01-24T05:38:32.514Z,44.28
2019-01-24T05:41:00.290Z,44.42
2019-01-24T05:43:28.031Z,44.70
2019-01-24T05:45:55.776Z,44.54
2019-01-24T05:48:23.544Z,45.37
2019-01-24T05:50:51.636Z,45.20
2019-01-24T05:53:19.460Z,45.74
2019-01-24T05:55:47.199Z,45.39
2019-01-24T05:58:15.112Z,45.72
2019-01-24T06:00:44.003Z,45.41
2019-01-24T06:03:11.748Z,45.25
2019-01-24T06:05:41.934Z,45.04
2019-01-24T06:08:19.986Z,45.79
2019-01-24T06:10:47.864Z,45.57
2019-01-24T06:13:16.728Z,45.66
2019-01-24T06:15:44.635Z,45.63
2019-01-24T06:18:12.372Z,45.75
2019-01-24T06:20:40.211Z,46.25
2019-01-24T06:23:07.940Z,46.19
2019-01-24T06:25:35.762Z,46.52
2019-01-24T06:28:03.598Z,46.52
2019-01-24T06:30:31.421Z,46.41
2019-01-24T06:32:59.409Z,46.58
2019-01-24T06:35:27.148Z,46.78
2019-01-24T06:37:54.896Z,46.84
2019-01-24T06:40:24.435Z,47.05
2019-01-24T06:43:06.668Z,46.96
2019-01-24T06:45:27.976Z,47.29
2019-01-24T06:47:55.743Z,47.32
2019-01-24T06:50:23.484Z,47.41
2019-01-24T06:52:51.203Z,47.49
2019-01-24T06:55:23.156Z,47.40
2019-01-24T06:57:50.884Z,47.51
2019-01-24T07:00:18.686Z,47.04
2019-01-24T07:02:46.440Z,46.79
2019-01-24T07:05:14.194Z,47.14
2019-01-24T07:07:41.916Z,47.01
2019-01-24T07:10:11.187Z,47.35
2019-01-24T07:12:38.967Z,46.79
2019-01-24T07:15:07.934Z,46.54
2019-01-24T07:17:35.781Z,47.36
2019-01-24T07:20:22.864Z,47.25
2019-01-24T07:22:50.917Z,46.95
2019-01-24T07:25:19.697Z,46.88
2019-01-24T07:27:47.482Z,46.96
2019-01-24T07:30:15.616Z,46.71
2019-01-24T07:32:44.365Z,47.29
2019-01-24T07:35:12.295Z,46.76
2019-01-24T07:37:40.073Z,46.71
2019-01-24T07:40:08.395Z,46.81
2019-01-24T07:42:36.134Z,45.83
2019-01-24T07:45:04.355Z,46.95
2019-01-24T07:47:32.111Z,46.39
2019-01-24T07:49:59.926Z,46.71
2019-01-24T07:52:27.789Z,46.83
2019-01-24T07:55:05.564Z,46.55
2019-01-24T07:57:33.555Z,45.46
2019-01-24T08:00:01.435Z,44.92
2019-01-24T08:02:29.203Z,44.75
2019-01-24T08:04:56.952Z,45.01
2019-01-24T08:07:24.998Z,44.95
2019-01-24T08:09:52.863Z,44.82
2019-01-24T08:12:20.708Z,44.76
2019-01-24T08:14:48.529Z,44.70
2019-01-24T08:17:24.116Z,44.76
2019-01-24T08:19:51.896Z,44.95
2019-01-24T08:22:19.667Z,44.97
2019-01-24T08:24:47.392Z,44.89
2019-01-24T08:30:04.551Z,44.69
2019-01-24T08:32:32.332Z,44.88
2019-01-24T08:35:00.167Z,44.25
2019-01-24T08:37:27.996Z,45.04
2019-01-24T08:39:55.836Z,44.97
2019-01-24T08:42:23.647Z,44.86
2019-01-24T08:44:51.435Z,44.89
2019-01-24T08:47:19.627Z,44.74
2019-01-24T08:49:47.395Z,44.99
2019-01-24T08:52:15.176Z,44.75
2019-01-24T08:54:42.987Z,44.80
2019-01-24T08:57:10.778Z,45.01
2019-01-24T08:59:52.130Z,45.01
2019-01-24T09:02:20.179Z,45.00
2019-01-24T09:04:47.948Z,44.80
2019-01-24T09:07:15.760Z,44.72
2019-01-24T09:09:43.523Z,45.31
2019-01-24T09:12:11.356Z,45.04
2019-01-24T09:14:39.274Z,45.31
2019-01-24T09:17:07.122Z,45.36
2019-01-24T09:19:34.883Z,45.12
2019-01-24T09:22:02.839Z,45.23
2019-01-24T09:24:30.585Z,44.98
2019-01-24T09:26:58.516Z,45.09
2019-01-24T09:29:26.269Z,44.98
2019-01-24T09:31:54.118Z,45.27
2019-01-24T09:34:37.529Z,45.29
2019-01-24T09:37:05.350Z,45.18
2019-01-24T09:39:33.155Z,45.37
2019-01-24T09:42:00.991Z,45.20
2019-01-24T09:44:28.788Z,44.91
2019-01-24T09:46:56.527Z,45.47
2019-01-24T09:49:26.424Z,45.45
2019-01-24T09:51:54.249Z,45.12
2019-01-24T09:54:22.079Z,45.22
2019-01-24T09:56:49.901Z,44.72
2019-01-24T09:59:17.684Z,45.64
2019-01-24T10:01:45.468Z,45.54
2019-01-24T10:04:13.251Z,45.15
2019-01-24T10:06:42.297Z,45.45
2019-01-24T10:09:19.232Z,45.52
2019-01-24T10:11:47.017Z,45.44
2019-01-24T10:14:14.747Z,45.73
2019-01-24T10:16:42.799Z,45.33
2019-01-24T10:19:10.548Z,45.46
2019-01-24T10:21:38.336Z,45.58
2019-01-24T10:24:06.204Z,45.17
2019-01-24T10:26:33.951Z,45.38
2019-01-24T10:29:01.759Z,45.64
2019-01-24T10:31:29.750Z,45.68
2019-01-24T10:33:57.634Z,45.60
2019-01-24T10:36:25.416Z,45.57
2019-01-24T10:38:53.236Z,45.58
2019-01-24T10:41:21.001Z,46.02
2019-01-24T10:44:05.325Z,45.73
2019-01-24T10:46:33.054Z,46.44
2019-01-24T10:49:00.941Z,46.22
2019-01-24T10:51:28.884Z,45.96
2019-01-24T10:53:56.685Z,46.13
2019-01-24T10:56:24.503Z,45.99
2019-01-24T10:58:52.553Z,45.63
2019-01-24T11:01:20.348Z,46.08
2019-01-24T11:03:48.167Z,45.93
2019-01-24T11:06:16.011Z,45.97
2019-01-24T11:08:43.876Z,46.02
2019-01-24T11:11:11.691Z,45.77
2019-01-24T11:13:39.492Z,45.69
2019-01-24T11:16:07.334Z,45.88
2019-01-24T11:18:55.406Z,45.93
2019-01-24T11:21:23.452Z,45.81
2019-01-24T11:23:51.344Z,46.01
2019-01-24T11:26:19.143Z,46.00
2019-01-24T11:28:46.975Z,45.90
2019-01-24T11:31:14.770Z,46.11
2019-01-24T11:33:42.600Z,46.05
2019-01-24T11:36:10.406Z,46.00
2019-01-24T11:38:38.199Z,46.19
2019-01-24T11:41:06.554Z,46.18
2019-01-24T11:43:34.408Z,46.17
2019-01-24T11:46:02.175Z,46.20
2019-01-24T11:48:29.963Z,46.31
2019-01-24T11:53:34.699Z,46.31
2019-01-24T11:56:02.739Z,46.33
2019-01-24T11:58:30.621Z,45.94
2019-01-24T12:00:58.398Z,46.25
2019-01-24T12:03:26.181Z,45.92
2019-01-24T12:05:54.051Z,46.42
2019-01-24T12:08:21.884Z,46.31
2019-01-24T12:10:49.680Z,46.83
2019-01-24T12:13:17.536Z,46.61
2019-01-24T12:15:45.335Z,46.24
2019-01-24T12:18:13.154Z,45.99
2019-01-24T12:20:40.972Z,46.33
2019-01-24T12:23:08.841Z,46.66
2019-01-24T12:25:36.655Z,46.38
2019-01-24T12:28:17.906Z,46.14
2019-01-24T12:30:43.950Z,46.30
2019-01-24T12:33:11.928Z,46.84
2019-01-24T12:35:39.918Z,46.44
2019-01-24T12:38:07.707Z,46.54
2019-01-24T12:40:36.373Z,46.18
2019-01-24T12:43:04.363Z,46.97
2019-01-24T12:45:33.252Z,46.96
2019-01-24T12:48:01.070Z,46.59
2019-01-24T12:50:28.856Z,46.19
2019-01-24T12:52:56.736Z,47.19
2019-01-24T12:55:24.616Z,47.28
2019-01-24T12:57:52.515Z,46.67
2019-01-24T13:00:21.341Z,47.03
2019-01-24T13:02:49.152Z,46.58
2019-01-24T13:05:36.175Z,47.29
2019-01-24T13:08:03.980Z,47.54
2019-01-24T13:10:38.512Z,46.36
2019-01-24T13:13:06.665Z,47.22
2019-01-24T13:15:34.535Z,47.37
2019-01-24T13:18:02.297Z,47.20
2019-01-24T13:20:30.051Z,47.33
2019-01-24T13:22:57.852Z,46.99
2019-01-24T13:25:26.897Z,47.03
2019-01-24T13:27:54.714Z,46.98
2019-01-24T13:30:23.404Z,47.05
2019-01-24T13:33:08.668Z,46.64
2019-01-24T13:35:36.578Z,47.07
2019-01-24T13:38:04.782Z,46.34
2019-01-24T13:40:32.598Z,47.65
2019-01-24T13:43:00.910Z,47.29
2019-01-24T13:45:29.709Z,47.10
2019-01-24T13:47:57.584Z,47.48
2019-01-24T13:50:25.489Z,47.59
2019-01-24T13:52:53.406Z,47.18
2019-01-24T13:55:21.324Z,47.38
2019-01-24T13:57:49.183Z,47.59
2019-01-24T14:00:21.657Z,46.83
2019-01-24T14:03:08.132Z,47.15
2019-01-24T14:05:36.002Z,47.25
2019-01-24T14:08:03.916Z,47.39
2019-01-24T14:10:31.773Z,47.43
2019-01-24T14:12:59.599Z,47.22
2019-01-24T14:15:27.420Z,47.35
2019-01-24T14:17:55.266Z,47.57
2019-01-24T14:20:23.071Z,46.78
2019-01-24T14:22:50.880Z,47.01
2019-01-24T14:25:18.692Z,47.47
2019-01-24T14:27:46.507Z,47.28
2019-01-24T14:30:18.996Z,47.42
2019-01-24T14:33:04.295Z,47.46
2019-01-24T14:35:32.500Z,47.49
2019-01-24T14:38:00.577Z,47.49
2019-01-24T14:40:28.476Z,47.43
2019-01-24T14:42:56.286Z,47.43
2019-01-24T14:45:24.150Z,47.40
2019-01-24T14:47:52.030Z,47.32
2019-01-24T14:50:20.649Z,46.99
2019-01-24T14:52:48.522Z,47.45
2019-01-24T14:55:16.434Z,47.18
2019-01-24T14:57:44.293Z,46.66
2019-01-24T15:00:34.077Z,47.54
2019-01-24T15:03:01.961Z,47.39
2019-01-24T15:05:29.781Z,47.36
2019-01-24T15:07:57.659Z,47.34
2019-01-24T15:10:25.566Z,47.42
2019-01-24T15:12:53.492Z,47.30
2019-01-24T15:15:21.555Z,47.54
2019-01-24T15:17:49.422Z,47.50
2019-01-24T15:20:17.319Z,47.45
2019-01-24T15:22:45.716Z,47.42
2019-01-24T15:25:13.552Z,47.32
2019-01-24T15:27:41.403Z,46.96
2019-01-24T15:30:11.039Z,47.47
2019-01-24T15:32:38.903Z,47.17
2019-01-24T15:35:26.043Z,47.35
2019-01-24T15:37:54.625Z,45.96
2019-01-24T15:40:24.264Z,45.66
2019-01-24T15:42:52.086Z,46.57
2019-01-24T15:45:19.940Z,47.75
2019-01-24T15:47:47.858Z,47.18
2019-01-24T15:50:16.282Z,47.92
2019-01-24T15:52:44.140Z,47.74
2019-01-24T15:55:12.016Z,47.48
2019-01-24T15:57:39.902Z,47.33
2019-01-24T16:00:09.500Z,47.03
2019-01-24T16:02:37.412Z,46.77
2019-01-24T16:05:23.544Z,46.63
2019-01-24T16:07:51.506Z,47.63
2019-01-24T16:10:19.746Z,46.97
2019-01-24T16:12:47.723Z,47.51
2019-01-24T16:15:16.809Z,47.52
2019-01-24T16:17:45.091Z,47.17
2019-01-24T16:20:14.315Z,46.78
2019-01-24T16:22:42.599Z,46.82
2019-01-24T16:25:10.996Z,47.37
2019-01-24T16:27:39.056Z,47.30
2019-01-24T16:30:08.156Z,47.23
2019-01-24T16:32:36.235Z,46.93
2019-01-24T16:35:16.434Z,47.04
2019-01-24T16:37:40.570Z,47.12
2019-01-24T16:40:09.520Z,47.08
2019-01-24T16:42:38.140Z,46.88
2019-01-24T16:45:07.176Z,47.07
2019-01-24T16:47:35.284Z,47.07
2019-01-24T16:50:03.212Z,47.18
2019-01-24T16:52:31.288Z,47.40
2019-01-24T16:54:59.069Z,47.35
2019-01-24T16:57:27.547Z,47.34
2019-01-24T16:59:55.808Z,47.29
2019-01-24T17:02:23.704Z,47.01
2019-01-24T17:04:51.941Z,47.16
2019-01-24T17:07:23.644Z,47.05
2019-01-24T17:10:03.604Z,47.15
2019-01-24T17:12:31.872Z,46.91
2019-01-24T17:14:59.952Z,46.91
2019-01-24T17:17:31.354Z,46.96
2019-01-24T17:19:58.927Z,46.88
2019-01-24T17:22:27.070Z,46.47
2019-01-24T17:24:55.355Z,46.74
2019-01-24T17:27:23.357Z,46.83
2019-01-24T17:29:51.351Z,46.74
2019-01-24T17:32:19.519Z,46.79
2019-01-24T17:34:47.787Z,46.72
2019-01-24T17:37:15.584Z,46.58
2019-01-24T17:39:43.827Z,46.76
2019-01-24T17:42:11.893Z,46.99
2019-01-24T17:44:56.397Z,46.99
2019-01-24T17:47:14.308Z,46.76
2019-01-24T17:49:42.535Z,46.31
2019-01-24T17:52:10.764Z,46.50
2019-01-24T17:54:39.003Z,46.62
2019-01-24T17:57:07.055Z,46.68
2019-01-24T17:59:35.054Z,46.61
2019-01-24T18:02:03.660Z,46.74
2019-01-24T18:04:31.659Z,46.66
2019-01-24T18:07:00.356Z,46.80
2019-01-24T18:09:28.370Z,46.53
2019-01-24T18:11:56.704Z,46.59
2019-01-24T18:14:25.147Z,45.95
2019-01-24T18:16:52.882Z,46.22
2019-01-24T18:19:20.620Z,46.81
2019-01-24T18:21:48.364Z,46.60
2019-01-24T18:24:17.792Z,46.48
2019-01-24T18:26:52.619Z,46.37
2019-01-24T18:29:20.462Z,46.24
2019-01-24T18:31:48.272Z,45.70
2019-01-24T18:34:17.156Z,45.06
2019-01-24T18:36:45.401Z,46.22
2019-01-24T18:39:13.686Z,46.76
2019-01-24T18:41:41.719Z,45.59
2019-01-24T18:44:09.464Z,46.43
2019-01-24T18:46:37.443Z,46.46
2019-01-24T18:49:05.208Z,45.54
2019-01-24T18:51:32.983Z,46.48
2019-01-24T18:54:00.735Z,46.21
2019-01-24T18:56:29.021Z,46.37
2019-01-24T18:58:57.062Z,46.21
2019-01-24T19:01:52.953Z,46.24
2019-01-24T19:04:20.736Z,45.97
2019-01-24T19:06:48.799Z,44.51
2019-01-24T19:09:16.555Z,43.44
2019-01-24T19:11:47.478Z,44.90
2019-01-24T19:14:15.861Z,46.56
2019-01-24T19:16:43.631Z,45.43
2019-01-24T19:19:11.364Z,47.21
2019-01-24T19:21:39.099Z,46.53
2019-01-24T19:24:06.883Z,46.13
2019-01-24T19:26:34.912Z,45.69
2019-01-24T19:29:02.728Z,46.33
2019-01-24T19:31:45.051Z,45.88
2019-01-24T19:34:12.957Z,46.10
2019-01-24T19:36:41.588Z,45.13
2019-01-24T19:39:09.315Z,46.04
2019-01-24T19:41:37.149Z,46.26
2019-01-24T19:44:05.204Z,45.27
2019-01-24T19:46:33.519Z,45.04
2019-01-24T19:49:01.597Z,46.18
2019-01-24T19:51:29.318Z,45.70
2019-01-24T19:53:57.448Z,44.80
2019-01-24T19:56:25.474Z,46.39
2019-01-24T19:58:53.228Z,44.51
2019-01-24T20:01:20.963Z,46.36
2019-01-24T20:07:05.709Z,45.44
2019-01-24T20:09:33.517Z,45.46
2019-01-24T20:12:06.712Z,46.53
2019-01-24T20:14:34.830Z,47.24
2019-01-24T20:17:21.341Z,46.66
2019-01-24T20:19:49.371Z,45.95
2019-01-24T20:22:17.772Z,46.64
2019-01-24T20:24:46.316Z,46.68
2019-01-24T20:27:14.521Z,47.19
2019-01-24T20:29:42.577Z,46.41
2019-01-24T20:32:10.454Z,47.16
2019-01-24T20:34:38.510Z,46.19
2019-01-24T20:37:06.580Z,47.18
2019-01-24T20:39:34.781Z,46.38
2019-01-24T20:42:03.241Z,46.31
2019-01-24T20:44:31.174Z,47.21
2019-01-24T20:46:59.805Z,47.11
2019-01-24T20:49:38.552Z,47.13
2019-01-24T20:52:06.995Z,46.46
2019-01-24T20:54:35.069Z,47.19
2019-01-24T20:57:03.130Z,47.13
2019-01-24T20:59:31.797Z,47.52
2019-01-24T21:02:00.055Z,47.79
2019-01-24T21:04:28.091Z,46.86
2019-01-24T21:06:56.475Z,46.67
2019-01-24T21:09:25.606Z,46.58
2019-01-24T21:11:53.712Z,47.30
2019-01-24T21:14:26.545Z,47.08
2019-01-24T21:16:54.468Z,47.03
2019-01-24T21:19:42.219Z,47.04
2019-01-24T21:22:10.293Z,46.95
2019-01-24T21:24:38.098Z,46.70
2019-01-24T21:27:06.541Z,46.48
2019-01-24T21:29:34.571Z,46.30
2019-01-24T21:32:02.832Z,47.10
2019-01-24T21:34:30.641Z,46.48
2019-01-24T21:36:58.468Z,46.30
2019-01-24T21:52:59.164Z,46.01
2019-01-24T22:02:02.415Z,47.97
2019-01-24T22:04:31.062Z,47.32
2019-01-24T22:06:59.846Z,46.65
2019-01-24T22:09:29.205Z,46.43
2019-01-24T22:12:08.480Z,46.51
2019-01-24T22:14:36.389Z,46.63
2019-01-24T22:17:30.653Z,47.16
2019-01-24T22:20:00.798Z,46.62
2019-01-24T22:29:23.406Z,46.15
2019-01-24T22:31:51.259Z,46.32
2019-01-24T22:34:19.302Z,46.87
2019-01-24T22:36:49.248Z,46.67
2019-01-24T22:39:17.532Z,47.86
2019-01-24T22:41:45.557Z,47.39
2019-01-24T22:44:13.712Z,46.32
2019-01-24T22:46:41.875Z,46.93
2019-01-24T22:49:10.266Z,47.72
2019-01-24T22:51:38.404Z,46.96
2019-01-24T22:54:06.248Z,47.16
2019-01-24T22:56:35.499Z,46.97
2019-01-24T22:59:17.549Z,46.78
2019-01-24T23:01:47.369Z,46.44
2019-01-24T23:04:16.817Z,46.09
2019-01-24T23:06:44.651Z,45.68
2019-01-24T23:09:12.437Z,45.69
2019-01-24T23:11:40.829Z,46.16
2019-01-24T23:14:09.001Z,46.38
2019-01-24T23:16:36.791Z,46.57
2019-01-24T23:19:04.667Z,46.45
2019-01-24T23:21:32.904Z,46.97
2019-01-24T23:26:29.298Z,47.45
2019-01-24T23:29:09.953Z,48.02
2019-01-24T23:31:57.156Z,48.16
2019-01-24T23:34:25.004Z,47.26
2019-01-24T23:36:52.788Z,47.15
2019-01-24T23:39:21.080Z,47.10
2019-01-24T23:41:49.124Z,46.82
2019-01-24T23:44:17.308Z,47.75
2019-01-24T23:46:45.623Z,47.52
2019-01-24T23:49:13.445Z,47.29
2019-01-24T23:51:42.059Z,47.47
2019-01-24T23:54:28.477Z,47.45
2019-01-24T23:56:56.856Z,47.32
2019-01-24T23:59:26.958Z,47.17
